createdAt,value
2022-10-13T00:00:20.028Z,40.44
2022-10-13T00:01:20.025Z,40.93
2022-10-13T00:02:20.443Z,42.86
2022-10-13T00:03:19.975Z,41.41
2022-10-13T00:04:19.973Z,41.41
2022-10-13T00:05:20.002Z,43.83
2022-10-13T00:06:19.951Z,50.76
2022-10-13T00:07:19.956Z,48.34
2022-10-13T00:08:19.907Z,41.41
2022-10-13T00:09:19.935Z,40.61
2022-10-13T00:10:19.940Z,42.22
2022-10-13T00:11:19.899Z,42.54
2022-10-13T00:12:20.266Z,42.70
2022-10-13T00:13:19.866Z,41.57
2022-10-13T00:14:19.866Z,44.47
2022-10-13T00:15:20.851Z,47.53
2022-10-13T00:16:19.837Z,40.93
2022-10-13T00:17:19.842Z,41.09
2022-10-13T00:18:19.810Z,40.77
2022-10-13T00:19:19.822Z,43.02
2022-10-13T00:20:19.860Z,41.57
2022-10-13T00:21:19.804Z,40.93
2022-10-13T00:22:21.153Z,45.44
2022-10-13T00:23:19.769Z,43.67
2022-10-13T00:24:19.758Z,45.92
2022-10-13T00:25:19.792Z,40.77
2022-10-13T00:26:19.735Z,46.73
2022-10-13T00:27:19.746Z,47.86
2022-10-13T00:28:19.752Z,48.34
2022-10-13T00:29:19.702Z,42.54
2022-10-13T00:30:19.755Z,41.57
2022-10-13T00:31:19.742Z,40.93
2022-10-13T00:32:20.053Z,47.05
2022-10-13T00:33:19.669Z,42.38
2022-10-13T00:34:19.753Z,41.89
2022-10-13T00:35:19.669Z,40.77
2022-10-13T00:36:19.685Z,41.41
2022-10-13T00:37:19.624Z,40.61
2022-10-13T00:38:19.622Z,40.61
2022-10-13T00:39:19.604Z,44.79
2022-10-13T00:40:19.610Z,48.66
2022-10-13T00:41:19.599Z,40.44
2022-10-13T00:42:19.944Z,40.61
2022-10-13T00:43:19.581Z,41.89
2022-10-13T00:44:19.564Z,45.60
2022-10-13T00:45:19.553Z,41.41
2022-10-13T00:46:19.558Z,43.99
2022-10-13T00:47:19.547Z,45.44
2022-10-13T00:48:19.541Z,49.63
2022-10-13T00:49:19.543Z,43.83
2022-10-13T00:50:19.514Z,42.38
2022-10-13T00:51:19.514Z,42.22
2022-10-13T00:52:19.802Z,41.25
2022-10-13T00:53:19.470Z,43.83
2022-10-13T00:54:19.602Z,43.99
2022-10-13T00:55:19.461Z,42.38
2022-10-13T00:56:19.449Z,43.67
2022-10-13T00:57:19.466Z,44.31
2022-10-13T00:58:19.433Z,40.44
2022-10-13T00:59:19.414Z,40.77
2022-10-13T01:00:19.417Z,40.44
2022-10-13T01:01:19.377Z,40.61
2022-10-13T01:02:19.673Z,43.99
2022-10-13T01:03:19.403Z,41.25
2022-10-13T01:04:19.374Z,43.83
2022-10-13T01:05:19.375Z,42.38
2022-10-13T01:06:23.436Z,57.69
2022-10-13T01:07:20.356Z,41.73
2022-10-13T01:08:19.335Z,41.57
2022-10-13T01:09:19.343Z,43.51
2022-10-13T01:10:19.341Z,43.18
2022-10-13T01:11:19.289Z,45.60
2022-10-13T01:12:19.600Z,46.57
2022-10-13T01:13:19.297Z,44.79
2022-10-13T01:14:19.271Z,46.57
2022-10-13T01:15:19.262Z,41.89
2022-10-13T01:16:19.258Z,46.57
2022-10-13T01:17:19.233Z,48.98
2022-10-13T01:18:19.222Z,44.47
2022-10-13T01:19:19.245Z,42.06
2022-10-13T01:20:19.241Z,43.99
2022-10-13T01:21:19.219Z,42.38
2022-10-13T01:22:19.589Z,42.86
2022-10-13T01:23:19.186Z,42.86
2022-10-13T01:24:19.214Z,46.25
2022-10-13T01:25:19.181Z,45.44
2022-10-13T01:26:19.165Z,40.44
2022-10-13T01:27:19.213Z,43.02
2022-10-13T01:28:19.163Z,44.79
2022-10-13T01:29:19.111Z,44.96
2022-10-13T01:30:19.102Z,42.06
2022-10-13T01:31:19.136Z,45.76
2022-10-13T01:32:19.405Z,46.25
2022-10-13T01:33:19.079Z,43.83
2022-10-13T01:34:19.074Z,41.57
2022-10-13T01:35:19.104Z,47.86
2022-10-13T01:36:19.058Z,41.73
2022-10-13T01:37:19.033Z,42.38
2022-10-13T01:38:19.058Z,46.89
2022-10-13T01:39:19.016Z,45.76
2022-10-13T01:40:19.035Z,43.99
2022-10-13T01:41:19.021Z,43.99
2022-10-13T01:42:19.305Z,42.06
2022-10-13T01:43:18.982Z,41.41
2022-10-13T01:44:19.011Z,45.28
2022-10-13T01:45:18.962Z,42.06
2022-10-13T01:46:19.987Z,41.57
2022-10-13T01:47:18.947Z,44.31
2022-10-13T01:48:18.933Z,42.38
2022-10-13T01:49:18.926Z,48.34
2022-10-13T01:50:18.954Z,45.44
2022-10-13T01:51:18.909Z,45.44
2022-10-13T01:52:19.275Z,45.92
2022-10-13T01:53:18.901Z,41.73
2022-10-13T01:54:18.889Z,42.06
2022-10-13T01:55:18.874Z,43.67
2022-10-13T01:56:18.858Z,44.15
2022-10-13T01:57:18.842Z,41.25
2022-10-13T01:58:18.834Z,41.57
2022-10-13T01:59:18.840Z,41.57
2022-10-13T02:00:18.813Z,43.02
2022-10-13T02:01:18.802Z,41.25
2022-10-13T02:02:19.272Z,41.57
2022-10-13T02:03:18.800Z,43.02
2022-10-13T02:04:18.823Z,43.02
2022-10-13T02:05:18.788Z,44.31
2022-10-13T02:06:18.770Z,41.25
2022-10-13T02:07:18.763Z,41.25
2022-10-13T02:08:18.757Z,42.54
2022-10-13T02:09:18.741Z,43.99
2022-10-13T02:10:18.727Z,43.51
2022-10-13T02:11:18.721Z,42.22
2022-10-13T02:12:18.936Z,45.28
2022-10-13T02:13:18.711Z,41.09
2022-10-13T02:14:18.682Z,41.89
2022-10-13T02:15:18.683Z,42.86
2022-10-13T02:16:18.653Z,44.31
2022-10-13T02:17:18.678Z,48.82
2022-10-13T02:18:18.671Z,41.89
2022-10-13T02:19:18.658Z,43.18
2022-10-13T02:20:18.628Z,47.70
2022-10-13T02:21:18.628Z,42.38
2022-10-13T02:22:18.924Z,41.73
2022-10-13T02:23:18.625Z,43.99
2022-10-13T02:24:18.591Z,44.79
2022-10-13T02:25:18.596Z,41.89
2022-10-13T02:26:18.595Z,43.34
2022-10-13T02:27:18.632Z,46.08
2022-10-13T02:28:18.600Z,43.34
2022-10-13T02:29:18.533Z,42.22
2022-10-13T02:30:18.513Z,41.25
2022-10-13T02:31:19.533Z,43.51
2022-10-13T02:32:18.812Z,41.89
2022-10-13T02:33:18.549Z,42.54
2022-10-13T02:34:18.494Z,44.47
2022-10-13T02:35:18.497Z,45.60
2022-10-13T02:36:28.383Z,41.73
2022-10-13T02:37:18.445Z,43.99
2022-10-13T02:38:18.455Z,43.99
2022-10-13T02:39:18.450Z,50.43
2022-10-13T02:40:18.451Z,49.79
2022-10-13T02:41:18.416Z,47.05
2022-10-13T02:42:19.073Z,44.31
2022-10-13T02:43:18.391Z,42.22
2022-10-13T02:44:18.388Z,44.47
2022-10-13T02:45:18.400Z,49.15
2022-10-13T02:46:18.367Z,43.67
2022-10-13T02:47:18.367Z,46.25
2022-10-13T02:48:18.353Z,45.76
2022-10-13T02:49:18.355Z,52.85
2022-10-13T02:50:18.354Z,46.41
2022-10-13T02:51:18.313Z,47.05
2022-10-13T02:52:18.638Z,47.53
2022-10-13T02:53:18.324Z,49.63
2022-10-13T02:54:18.283Z,50.60
2022-10-13T02:55:18.274Z,48.02
2022-10-13T02:56:18.265Z,48.66
2022-10-13T02:57:18.255Z,52.53
2022-10-13T02:58:18.260Z,48.02
2022-10-13T02:59:18.235Z,50.27
2022-10-13T03:00:18.260Z,48.66
2022-10-13T03:01:18.223Z,49.47
2022-10-13T03:02:18.783Z,48.02
2022-10-13T03:03:18.212Z,53.50
2022-10-13T03:04:18.316Z,48.34
2022-10-13T03:05:18.191Z,46.25
2022-10-13T03:06:18.179Z,52.05
2022-10-13T03:07:18.157Z,49.47
2022-10-13T03:08:18.146Z,51.88
2022-10-13T03:09:18.151Z,48.34
2022-10-13T03:10:18.124Z,49.15
2022-10-13T03:11:18.111Z,55.75
2022-10-13T03:12:18.368Z,52.37
2022-10-13T03:13:18.095Z,51.72
2022-10-13T03:14:18.105Z,46.89
2022-10-13T03:15:18.072Z,50.76
2022-10-13T03:16:18.067Z,53.98
2022-10-13T03:17:18.064Z,52.53
2022-10-13T03:18:18.049Z,52.21
2022-10-13T03:19:18.061Z,51.56
2022-10-13T03:20:18.028Z,50.76
2022-10-13T03:21:18.019Z,49.79
2022-10-13T03:22:18.345Z,49.31
2022-10-13T03:23:18.001Z,51.72
2022-10-13T03:24:17.990Z,50.11
2022-10-13T03:25:17.986Z,50.92
2022-10-13T03:26:17.966Z,52.85
2022-10-13T03:27:17.982Z,49.47
2022-10-13T03:28:17.992Z,46.08
2022-10-13T03:29:17.945Z,47.53
2022-10-13T03:30:17.927Z,49.15
2022-10-13T03:31:17.914Z,48.50
2022-10-13T03:32:18.283Z,47.05
2022-10-13T03:33:17.907Z,50.76
2022-10-13T03:34:17.893Z,52.69
2022-10-13T03:35:17.881Z,53.01
2022-10-13T03:36:17.872Z,50.27
2022-10-13T03:37:17.866Z,53.82
2022-10-13T03:38:17.869Z,50.43
2022-10-13T03:39:17.843Z,53.66
2022-10-13T03:40:17.828Z,50.60
2022-10-13T03:41:17.824Z,53.98
2022-10-13T03:42:18.130Z,50.60
2022-10-13T03:43:17.819Z,51.08
2022-10-13T03:44:17.789Z,48.66
2022-10-13T03:45:17.781Z,54.46
2022-10-13T03:46:17.774Z,47.70
2022-10-13T03:47:17.760Z,50.60
2022-10-13T03:48:17.755Z,46.25
2022-10-13T03:49:17.763Z,48.50
2022-10-13T03:50:17.732Z,45.92
2022-10-13T03:51:17.719Z,48.18
2022-10-13T03:52:18.155Z,46.41
2022-10-13T03:53:17.701Z,50.76
2022-10-13T03:54:17.701Z,54.95
2022-10-13T03:55:17.676Z,53.82
2022-10-13T03:56:17.674Z,50.92
2022-10-13T03:57:17.679Z,52.05
2022-10-13T03:58:17.662Z,51.72
2022-10-13T03:59:17.631Z,49.31
2022-10-13T04:00:17.630Z,51.24
2022-10-13T04:01:17.628Z,48.98
2022-10-13T04:02:17.937Z,46.41
2022-10-13T04:03:17.604Z,51.40
2022-10-13T04:04:17.599Z,53.17
2022-10-13T04:05:17.607Z,51.24
2022-10-13T04:06:17.579Z,51.08
2022-10-13T04:07:17.570Z,52.05
2022-10-13T04:08:17.549Z,49.79
2022-10-13T04:09:17.554Z,54.62
2022-10-13T04:10:17.545Z,50.76
2022-10-13T04:11:17.551Z,54.46
2022-10-13T04:12:20.868Z,50.76
2022-10-13T04:13:18.517Z,53.82
2022-10-13T04:14:17.500Z,52.05
2022-10-13T04:15:17.492Z,52.53
2022-10-13T04:16:17.506Z,57.20
2022-10-13T04:17:17.478Z,53.33
2022-10-13T04:18:17.474Z,52.05
2022-10-13T04:19:17.449Z,53.98
2022-10-13T04:20:17.440Z,53.01
2022-10-13T04:21:17.437Z,52.85
2022-10-13T04:22:17.829Z,52.69
2022-10-13T04:23:17.409Z,53.50
2022-10-13T04:24:17.409Z,51.72
2022-10-13T04:25:17.390Z,53.01
2022-10-13T04:26:17.389Z,53.82
2022-10-13T04:27:17.416Z,52.37
2022-10-13T04:28:17.417Z,51.08
2022-10-13T04:29:17.346Z,49.31
2022-10-13T04:30:17.342Z,55.43
2022-10-13T04:31:17.339Z,52.21
2022-10-13T04:32:17.703Z,54.62
2022-10-13T04:33:17.370Z,54.46
2022-10-13T04:34:17.308Z,52.85
2022-10-13T04:35:17.288Z,53.98
2022-10-13T04:36:17.288Z,54.46
2022-10-13T04:37:17.278Z,53.66
2022-10-13T04:38:17.291Z,52.53
2022-10-13T04:39:17.260Z,52.85
2022-10-13T04:40:17.264Z,50.27
2022-10-13T04:41:17.229Z,52.37
2022-10-13T04:42:17.585Z,55.43
2022-10-13T04:43:17.216Z,51.40
2022-10-13T04:44:17.201Z,54.46
2022-10-13T04:45:17.208Z,53.82
2022-10-13T04:46:17.186Z,52.53
2022-10-13T04:47:17.176Z,51.88
2022-10-13T04:48:17.157Z,52.53
2022-10-13T04:49:17.168Z,52.85
2022-10-13T04:50:18.162Z,53.50
2022-10-13T04:51:17.135Z,53.98
2022-10-13T04:52:17.321Z,54.46
2022-10-13T04:53:19.314Z,56.07
2022-10-13T04:54:18.110Z,56.88
2022-10-13T04:55:17.088Z,56.07
2022-10-13T04:56:17.109Z,53.17
2022-10-13T04:57:17.075Z,54.79
2022-10-13T04:58:17.064Z,55.11
2022-10-13T04:59:17.062Z,55.75
2022-10-13T05:00:17.050Z,54.95
2022-10-13T05:01:21.349Z,53.66
2022-10-13T05:02:18.326Z,53.82
2022-10-13T05:03:17.010Z,55.43
2022-10-13T05:04:17.011Z,55.43
2022-10-13T05:05:17.007Z,54.95
2022-10-13T05:06:17.010Z,55.27
2022-10-13T05:07:18.470Z,54.46
2022-10-13T05:08:17.976Z,54.46
2022-10-13T05:09:16.959Z,53.66
2022-10-13T05:10:16.952Z,54.30
2022-10-13T05:11:16.956Z,56.40
2022-10-13T05:12:17.086Z,56.56
2022-10-13T05:13:16.917Z,56.56
2022-10-13T05:14:16.912Z,57.04
2022-10-13T05:15:16.903Z,55.27
2022-10-13T05:16:16.889Z,54.62
2022-10-13T05:17:17.003Z,56.72
2022-10-13T05:18:16.892Z,55.75
2022-10-13T05:19:16.866Z,57.04
2022-10-13T05:20:16.858Z,55.75
2022-10-13T05:21:16.843Z,56.56
2022-10-13T05:22:17.071Z,55.75
2022-10-13T05:23:16.816Z,56.24
2022-10-13T05:24:16.806Z,54.46
2022-10-13T05:25:16.811Z,56.40
2022-10-13T05:26:16.797Z,55.91
2022-10-13T05:27:16.796Z,56.88
2022-10-13T05:28:16.890Z,56.40
2022-10-13T05:29:16.784Z,59.78
2022-10-13T05:30:16.778Z,57.85
2022-10-13T05:31:16.742Z,58.01
2022-10-13T05:32:17.002Z,56.56
2022-10-13T05:33:16.713Z,57.36
2022-10-13T05:34:16.728Z,57.04
2022-10-13T05:35:16.716Z,56.56
2022-10-13T05:36:16.691Z,55.75
2022-10-13T05:37:16.688Z,58.17
2022-10-13T05:38:16.684Z,55.59
2022-10-13T05:39:16.723Z,56.56
2022-10-13T05:40:16.643Z,57.52
2022-10-13T05:41:16.645Z,57.04
2022-10-13T05:42:16.764Z,57.36
2022-10-13T05:43:16.640Z,56.72
2022-10-13T05:44:16.629Z,56.40
2022-10-13T05:45:16.603Z,55.91
2022-10-13T05:46:16.596Z,56.56
2022-10-13T05:47:16.608Z,56.88
2022-10-13T05:48:16.577Z,57.69
2022-10-13T05:49:16.569Z,58.65
2022-10-13T05:50:16.558Z,55.75
2022-10-13T05:51:16.559Z,54.79
2022-10-13T05:52:16.784Z,56.40
2022-10-13T05:53:16.542Z,56.56
2022-10-13T05:54:16.532Z,54.30
2022-10-13T05:55:16.512Z,51.88
2022-10-13T05:56:16.528Z,53.98
2022-10-13T05:57:16.486Z,59.46
2022-10-13T05:58:16.476Z,58.33
2022-10-13T05:59:16.495Z,58.33
2022-10-13T06:00:16.489Z,57.20
2022-10-13T06:01:16.471Z,58.17
2022-10-13T06:02:16.501Z,58.97
2022-10-13T06:03:16.433Z,57.36
2022-10-13T06:04:16.422Z,57.52
2022-10-13T06:05:16.422Z,58.17
2022-10-13T06:06:16.401Z,57.69
2022-10-13T06:07:16.412Z,56.88
2022-10-13T06:08:16.380Z,58.65
2022-10-13T06:09:16.374Z,56.07
2022-10-13T06:10:16.362Z,55.27
2022-10-13T06:11:16.356Z,56.56
2022-10-13T06:12:16.391Z,56.88
2022-10-13T06:13:16.372Z,56.40
2022-10-13T06:14:16.323Z,56.88
2022-10-13T06:15:16.329Z,55.43
2022-10-13T06:16:16.305Z,58.17
2022-10-13T06:17:16.325Z,58.17
2022-10-13T06:18:16.341Z,57.52
2022-10-13T06:19:16.279Z,58.49
2022-10-13T06:20:16.263Z,56.07
2022-10-13T06:21:16.264Z,58.01
2022-10-13T06:22:16.242Z,56.56
2022-10-13T06:23:16.242Z,58.01
2022-10-13T06:24:16.245Z,56.56
2022-10-13T06:25:16.214Z,59.46
2022-10-13T06:26:16.213Z,59.30
2022-10-13T06:27:16.201Z,56.40
2022-10-13T06:28:16.261Z,57.20
2022-10-13T06:29:16.209Z,58.97
2022-10-13T06:30:16.177Z,53.82
2022-10-13T06:31:16.162Z,59.14
2022-10-13T06:32:16.163Z,58.33
2022-10-13T06:33:16.145Z,60.75
2022-10-13T06:34:16.156Z,57.52
2022-10-13T06:35:16.140Z,58.97
2022-10-13T06:36:16.123Z,58.81
2022-10-13T06:37:16.122Z,58.33
2022-10-13T06:38:16.092Z,58.81
2022-10-13T06:39:16.091Z,58.81
2022-10-13T06:40:16.109Z,58.33
2022-10-13T06:41:16.072Z,59.14
2022-10-13T06:42:16.061Z,56.88
2022-10-13T06:43:16.053Z,53.82
2022-10-13T06:44:16.033Z,56.72
2022-10-13T06:45:16.048Z,58.17
2022-10-13T06:46:16.007Z,57.36
2022-10-13T06:47:16.035Z,58.17
2022-10-13T06:48:15.997Z,58.49
2022-10-13T06:49:15.989Z,57.69
2022-10-13T06:50:15.983Z,57.20
2022-10-13T06:51:16.001Z,56.40
2022-10-13T06:52:15.979Z,57.85
2022-10-13T06:53:15.947Z,55.59
2022-10-13T06:54:15.948Z,53.50
2022-10-13T06:55:15.927Z,57.52
2022-10-13T06:56:15.910Z,58.33
2022-10-13T06:57:15.905Z,58.81
2022-10-13T06:58:15.901Z,57.85
2022-10-13T06:59:15.889Z,58.49
2022-10-13T07:00:15.907Z,59.30
2022-10-13T07:01:15.859Z,58.17
2022-10-13T07:02:15.848Z,57.52
2022-10-13T07:03:15.854Z,57.36
2022-10-13T07:04:15.824Z,56.07
2022-10-13T07:05:15.843Z,58.17
2022-10-13T07:06:15.829Z,55.59
2022-10-13T07:07:15.805Z,54.14
2022-10-13T07:08:15.798Z,54.79
2022-10-13T07:09:15.782Z,57.69
2022-10-13T07:10:15.794Z,57.36
2022-10-13T07:11:16.621Z,57.36
2022-10-13T07:12:15.764Z,58.49
2022-10-13T07:13:15.823Z,58.81
2022-10-13T07:14:15.741Z,57.20
2022-10-13T07:15:15.728Z,58.65
2022-10-13T07:16:15.757Z,56.24
2022-10-13T07:17:15.708Z,57.85
2022-10-13T07:18:15.692Z,56.88
2022-10-13T07:19:15.705Z,54.30
2022-10-13T07:20:15.699Z,56.56
2022-10-13T07:21:15.685Z,58.17
2022-10-13T07:22:15.662Z,58.17
2022-10-13T07:23:15.644Z,57.85
2022-10-13T07:24:15.644Z,58.17
2022-10-13T07:25:15.656Z,57.69
2022-10-13T07:26:15.631Z,57.04
2022-10-13T07:27:15.630Z,59.46
2022-10-13T07:28:15.644Z,58.65
2022-10-13T07:29:15.640Z,58.49
2022-10-13T07:30:15.583Z,55.43
2022-10-13T07:31:15.579Z,58.33
2022-10-13T07:32:15.564Z,58.33
2022-10-13T07:33:15.557Z,56.56
2022-10-13T07:34:15.582Z,59.30
2022-10-13T07:35:15.540Z,60.59
2022-10-13T07:36:15.536Z,55.91
2022-10-13T07:37:15.534Z,55.11
2022-10-13T07:38:15.534Z,55.27
2022-10-13T07:39:15.502Z,51.56
2022-10-13T07:40:15.500Z,53.66
2022-10-13T07:41:15.484Z,57.69
2022-10-13T07:42:15.459Z,58.65
2022-10-13T07:43:16.465Z,56.88
2022-10-13T07:44:15.456Z,57.36
2022-10-13T07:45:15.440Z,57.20
2022-10-13T07:46:15.430Z,58.97
2022-10-13T07:47:15.445Z,58.33
2022-10-13T07:48:15.444Z,54.95
2022-10-13T07:49:16.380Z,54.30
2022-10-13T07:50:15.391Z,53.33
2022-10-13T07:51:15.377Z,57.36
2022-10-13T07:52:15.420Z,58.17
2022-10-13T07:53:15.383Z,56.56
2022-10-13T07:54:15.355Z,58.33
2022-10-13T07:55:15.342Z,59.14
2022-10-13T07:56:15.360Z,59.30
2022-10-13T07:57:15.325Z,59.46
2022-10-13T07:58:15.330Z,56.56
2022-10-13T07:59:15.302Z,56.07
2022-10-13T08:00:15.295Z,53.50
2022-10-13T08:01:15.337Z,58.17
2022-10-13T08:02:15.291Z,58.65
2022-10-13T08:03:15.289Z,56.24
2022-10-13T08:04:15.261Z,53.50
2022-10-13T08:05:15.245Z,53.01
2022-10-13T08:06:15.990Z,58.49
2022-10-13T08:07:15.242Z,60.26
2022-10-13T08:08:15.247Z,61.07
2022-10-13T08:09:15.223Z,59.94
2022-10-13T08:10:15.216Z,58.01
2022-10-13T08:11:16.731Z,56.56
2022-10-13T08:12:15.178Z,59.30
2022-10-13T08:13:15.181Z,58.33
2022-10-13T08:14:15.174Z,58.65
2022-10-13T08:15:15.155Z,56.88
2022-10-13T08:16:15.178Z,58.81
2022-10-13T08:17:15.123Z,58.81
2022-10-13T08:18:15.130Z,53.66
2022-10-13T08:19:15.112Z,59.78
2022-10-13T08:20:15.089Z,59.46
2022-10-13T08:22:16.093Z,57.36
2022-10-13T08:23:15.071Z,57.85
2022-10-13T08:24:15.053Z,59.30
2022-10-13T08:25:15.074Z,53.98
2022-10-13T08:26:15.040Z,54.46
2022-10-13T08:27:15.039Z,56.56
2022-10-13T08:28:15.061Z,55.91
2022-10-13T08:29:23.338Z,54.95
2022-10-13T08:30:17.128Z,54.46
2022-10-13T08:31:15.160Z,52.85
2022-10-13T08:32:14.991Z,54.46
2022-10-13T08:33:14.965Z,54.79
2022-10-13T08:34:14.971Z,57.69
2022-10-13T08:35:14.971Z,56.56
2022-10-13T08:36:14.978Z,58.17
2022-10-13T08:37:46.825Z,57.20
2022-10-13T08:38:14.933Z,53.98
2022-10-13T08:39:14.912Z,52.37
2022-10-13T08:40:14.903Z,53.66
2022-10-13T08:41:14.919Z,52.21
2022-10-13T08:42:14.891Z,55.59
2022-10-13T08:43:14.877Z,53.82
2022-10-13T08:44:59.224Z,52.21
2022-10-13T08:45:39.853Z,54.62
2022-10-13T08:46:16.857Z,55.27
2022-10-13T08:47:14.844Z,53.98
2022-10-13T08:48:14.830Z,53.01
2022-10-13T08:49:14.845Z,50.11
2022-10-13T08:50:14.906Z,52.85
2022-10-13T08:51:14.802Z,53.33
2022-10-13T08:52:14.819Z,55.43
2022-10-13T08:53:14.784Z,55.91
2022-10-13T08:54:14.769Z,54.14
2022-10-13T08:55:14.790Z,54.62
2022-10-13T08:56:14.755Z,54.62
2022-10-13T08:57:14.753Z,54.46
2022-10-13T08:58:14.753Z,52.85
2022-10-13T08:59:14.728Z,53.33
2022-10-13T09:00:14.747Z,52.69
2022-10-13T09:01:14.830Z,56.56
2022-10-13T09:02:14.691Z,50.27
2022-10-13T09:03:14.673Z,48.34
2022-10-13T09:04:14.677Z,52.53
2022-10-13T09:05:14.673Z,54.79
2022-10-13T09:06:14.695Z,55.75
2022-10-13T09:07:14.658Z,54.46
2022-10-13T09:08:14.635Z,52.53
2022-10-13T09:09:14.621Z,50.92
2022-10-13T09:10:14.614Z,51.56
2022-10-13T09:11:14.625Z,53.66
2022-10-13T09:12:14.610Z,52.69
2022-10-13T09:13:14.599Z,48.82
2022-10-13T09:14:14.602Z,52.21
2022-10-13T09:15:14.591Z,53.33
2022-10-13T09:16:14.569Z,55.59
2022-10-13T09:18:14.547Z,53.82
2022-10-13T09:19:14.598Z,53.33
2022-10-13T09:20:14.509Z,54.62
2022-10-13T09:21:14.511Z,54.95
2022-10-13T09:22:14.494Z,56.88
2022-10-13T09:23:14.487Z,55.91
2022-10-13T09:24:14.521Z,55.43
2022-10-13T09:25:14.510Z,55.75
2022-10-13T09:26:14.500Z,56.40
2022-10-13T09:27:15.464Z,52.69
2022-10-13T09:28:14.474Z,53.98
2022-10-13T09:29:14.443Z,52.53
2022-10-13T09:30:14.417Z,53.66
2022-10-13T09:31:14.415Z,53.17
2022-10-13T09:32:14.426Z,54.46
2022-10-13T09:33:14.390Z,52.85
2022-10-13T09:34:14.389Z,53.82
2022-10-13T09:35:14.384Z,55.59
2022-10-13T09:36:14.394Z,54.46
2022-10-13T09:37:14.355Z,53.66
2022-10-13T09:38:14.358Z,53.82
2022-10-13T09:39:14.336Z,54.30
2022-10-13T09:40:14.327Z,53.33
2022-10-13T09:41:14.318Z,53.17
2022-10-13T09:42:14.312Z,53.33
2022-10-13T09:43:14.317Z,53.82
2022-10-13T09:44:14.287Z,53.82
2022-10-13T09:45:14.321Z,57.69
2022-10-13T09:46:14.304Z,53.98
2022-10-13T09:47:14.303Z,55.75
2022-10-13T09:48:14.259Z,55.59
2022-10-13T09:49:14.243Z,53.33
2022-10-13T09:50:14.290Z,53.01
2022-10-13T09:51:14.232Z,54.62
2022-10-13T09:52:14.228Z,57.20
2022-10-13T09:53:14.216Z,55.27
2022-10-13T09:54:14.245Z,52.53
2022-10-13T09:55:14.179Z,53.82
2022-10-13T09:56:14.228Z,54.95
2022-10-13T09:57:14.189Z,53.33
2022-10-13T09:58:14.154Z,52.85
2022-10-13T09:59:14.156Z,52.53
2022-10-13T10:00:14.226Z,55.91
2022-10-13T10:01:14.129Z,52.37
2022-10-13T10:02:18.020Z,52.21
2022-10-13T10:03:15.147Z,55.43
2022-10-13T10:04:14.141Z,54.30
2022-10-13T10:05:14.093Z,57.36
2022-10-13T10:06:14.085Z,55.11
2022-10-13T10:07:14.066Z,57.69
2022-10-13T10:08:14.097Z,58.01
2022-10-13T10:09:14.059Z,58.49
2022-10-13T10:10:14.115Z,56.72
2022-10-13T10:11:14.038Z,58.49
2022-10-13T10:12:14.062Z,58.65
2022-10-13T10:13:14.025Z,58.01
2022-10-13T10:14:13.991Z,57.85
2022-10-13T10:15:13.995Z,56.72
2022-10-13T10:16:13.985Z,54.14
2022-10-13T10:17:13.991Z,53.17
2022-10-13T10:18:13.944Z,58.17
2022-10-13T10:19:13.945Z,55.27
2022-10-13T10:20:13.984Z,57.52
2022-10-13T10:21:13.959Z,57.20
2022-10-13T10:22:13.915Z,56.56
2022-10-13T10:23:13.905Z,57.52
2022-10-13T10:24:13.941Z,52.53
2022-10-13T10:25:13.881Z,58.01
2022-10-13T10:26:13.870Z,57.20
2022-10-13T10:27:13.913Z,57.20
2022-10-13T10:28:13.954Z,57.85
2022-10-13T10:29:13.838Z,56.88
2022-10-13T10:30:13.849Z,55.43
2022-10-13T10:31:13.826Z,52.85
2022-10-13T10:32:13.840Z,56.88
2022-10-13T10:33:13.797Z,55.91
2022-10-13T10:34:15.471Z,57.69
2022-10-13T10:35:13.804Z,56.56
2022-10-13T10:36:13.788Z,53.82
2022-10-13T10:37:13.793Z,56.24
2022-10-13T10:38:13.784Z,56.24
2022-10-13T10:39:13.772Z,54.46
2022-10-13T10:40:13.753Z,58.65
2022-10-13T10:41:13.720Z,55.91
2022-10-13T10:42:13.825Z,54.14
2022-10-13T10:43:13.738Z,52.53
2022-10-13T10:44:13.749Z,54.46
2022-10-13T10:45:13.726Z,54.79
2022-10-13T10:46:13.694Z,54.79
2022-10-13T10:47:13.675Z,54.46
2022-10-13T10:48:13.663Z,53.33
2022-10-13T10:49:13.659Z,55.91
2022-10-13T10:50:13.638Z,56.88
2022-10-13T10:51:13.643Z,56.24
2022-10-13T10:52:13.634Z,57.36
2022-10-13T10:53:13.621Z,58.33
2022-10-13T10:54:13.628Z,57.36
2022-10-13T10:55:13.608Z,56.07
2022-10-13T10:56:13.576Z,56.40
2022-10-13T10:57:13.568Z,56.40
2022-10-13T10:58:13.559Z,54.79
2022-10-13T10:59:13.578Z,56.72
2022-10-13T11:00:13.613Z,52.85
2022-10-13T11:01:13.563Z,56.56
2022-10-13T11:02:13.522Z,57.36
2022-10-13T11:03:13.510Z,56.40
2022-10-13T11:04:13.504Z,57.04
2022-10-13T11:05:13.515Z,57.20
2022-10-13T11:06:13.484Z,53.82
2022-10-13T11:07:13.543Z,55.11
2022-10-13T11:08:13.463Z,52.85
2022-10-13T11:09:13.455Z,53.98
2022-10-13T11:10:13.462Z,54.79
2022-10-13T11:11:13.453Z,54.95
2022-10-13T11:12:13.450Z,51.40
2022-10-13T11:13:13.423Z,54.62
2022-10-13T11:14:13.421Z,56.24
2022-10-13T11:15:13.384Z,52.69
2022-10-13T11:16:13.399Z,51.72
2022-10-13T11:17:13.400Z,49.79
2022-10-13T11:18:13.435Z,52.53
2022-10-13T11:19:13.369Z,54.95
2022-10-13T11:20:13.353Z,55.43
2022-10-13T11:21:13.346Z,53.98
2022-10-13T11:22:13.324Z,54.14
2022-10-13T11:23:13.322Z,53.66
2022-10-13T11:24:13.291Z,54.14
2022-10-13T11:25:13.284Z,52.53
2022-10-13T11:26:13.283Z,52.53
2022-10-13T11:27:13.291Z,53.82
2022-10-13T11:28:13.302Z,53.82
2022-10-13T11:29:13.242Z,54.30
2022-10-13T11:30:13.249Z,54.30
2022-10-13T11:31:13.247Z,52.21
2022-10-13T11:32:13.232Z,53.82
2022-10-13T11:33:13.211Z,54.14
2022-10-13T11:34:13.192Z,53.82
2022-10-13T11:35:13.193Z,55.11
2022-10-13T11:36:13.181Z,52.69
2022-10-13T11:37:13.171Z,53.01
2022-10-13T11:38:17.595Z,56.07
2022-10-13T11:39:14.167Z,56.40
2022-10-13T11:40:13.146Z,56.24
2022-10-13T11:41:13.140Z,54.46
2022-10-13T11:42:13.117Z,54.79
2022-10-13T11:43:14.121Z,57.69
2022-10-13T11:44:13.100Z,55.75
2022-10-13T11:45:13.090Z,52.21
2022-10-13T11:46:13.069Z,52.37
2022-10-13T11:47:13.071Z,51.88
2022-10-13T11:48:13.095Z,56.07
2022-10-13T11:49:13.050Z,54.46
2022-10-13T11:50:13.038Z,54.46
2022-10-13T11:51:15.520Z,52.05
2022-10-13T11:52:13.040Z,53.50
2022-10-13T11:53:13.026Z,52.53
2022-10-13T11:54:13.002Z,52.53
2022-10-13T11:55:12.994Z,52.37
2022-10-13T11:56:12.981Z,54.95
2022-10-13T11:57:12.999Z,53.98
2022-10-13T11:58:12.955Z,52.69
2022-10-13T11:59:12.946Z,54.46
2022-10-13T12:00:12.954Z,53.17
2022-10-13T12:01:12.940Z,55.75
2022-10-13T12:02:12.943Z,55.43
2022-10-13T12:03:13.025Z,53.50
2022-10-13T12:04:12.894Z,50.43
2022-10-13T12:05:12.899Z,52.37
2022-10-13T12:06:12.899Z,53.17
2022-10-13T12:07:12.880Z,53.33
2022-10-13T12:08:12.881Z,54.79
2022-10-13T12:09:12.870Z,56.40
2022-10-13T12:10:12.868Z,55.75
2022-10-13T12:11:12.851Z,56.56
2022-10-13T12:12:12.823Z,54.46
2022-10-13T12:13:12.826Z,54.79
2022-10-13T12:14:12.824Z,56.07
2022-10-13T12:15:12.802Z,56.07
2022-10-13T12:16:12.821Z,57.85
2022-10-13T12:17:17.136Z,57.04
2022-10-13T12:18:13.792Z,57.85
2022-10-13T12:19:12.776Z,55.11
2022-10-13T12:20:12.753Z,56.88
2022-10-13T12:21:12.741Z,53.33
2022-10-13T12:22:12.726Z,55.59
2022-10-13T12:23:12.715Z,57.04
2022-10-13T12:24:12.710Z,55.75
2022-10-13T12:25:12.702Z,57.20
2022-10-13T12:26:12.686Z,58.01
2022-10-13T12:27:12.692Z,56.56
2022-10-13T12:28:12.726Z,56.40
2022-10-13T12:29:12.666Z,54.46
2022-10-13T12:30:12.651Z,55.75
2022-10-13T12:31:12.640Z,56.88
2022-10-13T12:32:12.650Z,56.72
2022-10-13T12:33:12.628Z,58.17
2022-10-13T12:34:12.643Z,55.59
2022-10-13T12:35:12.597Z,57.52
2022-10-13T12:36:12.598Z,58.33
2022-10-13T12:37:12.608Z,57.36
2022-10-13T12:38:12.574Z,57.20
2022-10-13T12:39:12.576Z,54.79
2022-10-13T12:40:12.557Z,54.14
2022-10-13T12:41:12.549Z,54.30
2022-10-13T12:42:12.555Z,55.43
2022-10-13T12:43:12.530Z,57.04
2022-10-13T12:44:12.512Z,57.69
2022-10-13T12:45:12.532Z,58.01
2022-10-13T12:46:12.521Z,57.85
2022-10-13T12:47:12.488Z,57.69
2022-10-13T12:48:12.479Z,56.88
2022-10-13T12:49:12.484Z,58.81
2022-10-13T12:50:12.475Z,57.52
2022-10-13T12:51:12.454Z,56.56
2022-10-13T12:52:12.431Z,54.14
2022-10-13T12:53:12.503Z,56.56
2022-10-13T12:54:12.405Z,56.56